MUC | München Airways

 METAR UND TAF INFORMATION

METAR FOR GCFV
ADDS - METARS form results

(1939 UTC 22 May 2019)
Data provider http://aviationweather.gov/metar/data/
 
METAR text: GCFV 221930Z 01018KT 9999 FEW028 SCT035 21/14 Q1016
Conditions at: GCFV (FUERTEVENTURA AR, ES) observed 1930 UTC 22 May 2019
Temperature: 21.0°C (70°F)
Dewpoint: 14.0°C (57°F) [RH = 64%]
Pressure (altimeter): 30.00 inches Hg (1016.0 mb)
Winds: from the N (10 degrees) at 21 MPH (18 knots; 9.3 m/s)
Visibility: 6 or more miles (10+ km)
Ceiling: at least 12,000 feet AGL
Clouds: few clouds at 2800 feet AGL
scattered clouds at 3500 feet AGL
Weather: no significant weather observed at this time

METAR text: GCFV 221900Z 01019KT 9999 SCT035 22/15 Q1016
Conditions at: GCFV (FUERTEVENTURA AR, ES) observed 1900 UTC 22 May 2019
Temperature: 22.0°C (72°F)
Dewpoint: 15.0°C (59°F) [RH = 65%]
Pressure (altimeter): 30.00 inches Hg (1016.0 mb)
Winds: from the N (10 degrees) at 22 MPH (19 knots; 9.8 m/s)
Visibility: 6 or more miles (10+ km)
Ceiling: at least 12,000 feet AGL
Clouds: scattered clouds at 3500 feet AGL
Weather: no significant weather observed at this time

Forecast for: GCFV (FUERTEVENTURA AR, ES)
Text: TAF GCFV 221400Z 2215/2315 05017KT 9999 SCT030 TX24/2314Z TN19/2303Z
Forecast period: 1500 to 1600 UTC 22 May 2019
Forecast type: FROM: standard forecast or significant change
Winds: from the NE (50 degrees) at 20 MPH (17 knots; 8.7 m/s)
Visibility: 6 or more miles 10+ km)
Ceiling: at least 12,000 feet AGL
Clouds: scattered clouds at 3000 feet AGL
Weather: no significant weather forecast for this period
Text: BECMG 2216/2218 35015KT
Forecast period: 1600 UTC 22 May 2019 to 0900 UTC 23 May 2019
Forecast type: BECOMING: Conditions expected to become as follows by 1800 UTC 22 May 2019
Winds: from the N (350 degrees) at 17 MPH (15 knots; 7.7 m/s)
Visibility: 6 or more miles 10+ km)
Ceiling: at least 12,000 feet AGL
Clouds: scattered clouds at 3000 feet AGL
Weather: no significant weather forecast for this period
Text: BECMG 2309/2311 05017KT
Forecast period: 0900 to 1500 UTC 23 May 2019
Forecast type: BECOMING: Conditions expected to become as follows by 1100 UTC 23 May 2019
Winds: from the NE (50 degrees) at 20 MPH (17 knots; 8.7 m/s)
Visibility: 6 or more miles 10+ km)
Ceiling: at least 12,000 feet AGL
Clouds: scattered clouds at 3000 feet AGL
Weather: no significant weather forecast for this period

 FLUGHAFENKARTE

 RUNWAY INFORMATION
Runway 01 Runway length 7874 ft Runway width 148 ft
Runway elevation 37 ft Runway displaced threshold 0 ft Runway heading 2
Runway 19 Runway length 7874 ft Runway width 148 ft
Runway elevation 75 ft Runway displaced threshold 0 ft Runway heading 182

 AIRPORT FREQUENCIES
Type APP Name CANARIAS A Frequency 129.3 MHZ
Type ATIS Name ATIS Frequency 118.65 MHZ
Type GND Name GND Frequency 121.7 MHZ
Type TWR Name TWR Frequency 118.5 MHZ

 AIRPORT NEAR NAVIGATION AIDS
Type VOR-DME Name Fuerteventura Frequency 114100 KHZ